sensor_id;sensor_type;location;lat;lon;timestamp;pressure;altitude;pressure_sealevel;temperature
68952;BMP180;56000;51.146;17.112;2023-09-08T00:00:22;101063.40;;;17.20
68952;BMP180;56000;51.146;17.112;2023-09-08T00:03:15;101064.60;;;17.20
68952;BMP180;56000;51.146;17.112;2023-09-08T00:05:48;101063.20;;;17.22
68952;BMP180;56000;51.146;17.112;2023-09-08T00:08:21;101062.60;;;17.24
68952;BMP180;56000;51.146;17.112;2023-09-08T00:10:55;101059.60;;;17.20
68952;BMP180;56000;51.146;17.112;2023-09-08T00:13:28;101057.60;;;17.20
68952;BMP180;56000;51.146;17.112;2023-09-08T00:16:02;101052.00;;;17.12
68952;BMP180;56000;51.146;17.112;2023-09-08T00:18:35;101052.80;;;17.10
68952;BMP180;56000;51.146;17.112;2023-09-08T00:21:08;101052.60;;;17.10
68952;BMP180;56000;51.146;17.112;2023-09-08T00:23:42;101050.60;;;17.10
68952;BMP180;56000;51.146;17.112;2023-09-08T00:26:15;101052.00;;;17.00
68952;BMP180;56000;51.146;17.112;2023-09-08T00:28:48;101056.20;;;17.00
68952;BMP180;56000;51.146;17.112;2023-09-08T00:31:21;101054.60;;;16.90
68952;BMP180;56000;51.146;17.112;2023-09-08T00:33:54;101052.20;;;16.90
68952;BMP180;56000;51.146;17.112;2023-09-08T00:36:28;101051.00;;;16.90
68952;BMP180;56000;51.146;17.112;2023-09-08T00:39:01;101050.20;;;16.90
68952;BMP180;56000;51.146;17.112;2023-09-08T00:41:34;101048.40;;;16.84
68952;BMP180;56000;51.146;17.112;2023-09-08T00:44:08;101045.40;;;16.80
68952;BMP180;56000;51.146;17.112;2023-09-08T00:46:43;101041.00;;;16.80
68952;BMP180;56000;51.146;17.112;2023-09-08T00:49:16;101039.60;;;16.70
68952;BMP180;56000;51.146;17.112;2023-09-08T00:51:50;101036.00;;;16.60
68952;BMP180;56000;51.146;17.112;2023-09-08T00:54:23;101038.00;;;16.60
68952;BMP180;56000;51.146;17.112;2023-09-08T00:56:57;101036.00;;;16.60
68952;BMP180;56000;51.146;17.112;2023-09-08T00:59:33;101040.20;;;16.60
68952;BMP180;56000;51.146;17.112;2023-09-08T01:02:06;101037.60;;;16.60
68952;BMP180;56000;51.146;17.112;2023-09-08T01:04:41;101038.60;;;16.60
68952;BMP180;56000;51.146;17.112;2023-09-08T01:07:15;101033.80;;;16.56
68952;BMP180;56000;51.146;17.112;2023-09-08T01:09:51;101038.20;;;16.50
68952;BMP180;56000;51.146;17.112;2023-09-08T01:12:24;101035.40;;;16.40
68952;BMP180;56000;51.146;17.112;2023-09-08T01:14:58;101028.20;;;16.40
68952;BMP180;56000;51.146;17.112;2023-09-08T01:17:31;101029.20;;;16.30
68952;BMP180;56000;51.146;17.112;2023-09-08T01:20:08;101029.40;;;16.20
68952;BMP180;56000;51.146;17.112;2023-09-08T01:23:09;101029.60;;;16.10
68952;BMP180;56000;51.146;17.112;2023-09-08T01:25:47;101028.80;;;16.00
68952;BMP180;56000;51.146;17.112;2023-09-08T01:28:22;101030.60;;;15.90
68952;BMP180;56000;51.146;17.112;2023-09-08T01:30:57;101024.80;;;15.80
68952;BMP180;56000;51.146;17.112;2023-09-08T01:33:31;101021.20;;;15.70
68952;BMP180;56000;51.146;17.112;2023-09-08T01:36:05;101018.80;;;15.60
68952;BMP180;56000;51.146;17.112;2023-09-08T01:38:38;101020.00;;;15.50
68952;BMP180;56000;51.146;17.112;2023-09-08T01:41:11;101020.60;;;15.40
68952;BMP180;56000;51.146;17.112;2023-09-08T01:43:44;101021.00;;;15.30
68952;BMP180;56000;51.146;17.112;2023-09-08T01:46:18;101022.00;;;15.24
68952;BMP180;56000;51.146;17.112;2023-09-08T01:48:51;101017.20;;;15.20
68952;BMP180;56000;51.146;17.112;2023-09-08T01:51:24;101021.00;;;15.10
68952;BMP180;56000;51.146;17.112;2023-09-08T01:53:57;101017.60;;;15.00
68952;BMP180;56000;51.146;17.112;2023-09-08T01:56:30;101016.80;;;15.00
68952;BMP180;56000;51.146;17.112;2023-09-08T01:59:03;101019.40;;;14.90
68952;BMP180;56000;51.146;17.112;2023-09-08T02:01:36;101019.60;;;14.84
68952;BMP180;56000;51.146;17.112;2023-09-08T02:04:10;101027.00;;;14.80
68952;BMP180;56000;51.146;17.112;2023-09-08T02:06:43;101023.60;;;14.80
68952;BMP180;56000;51.146;17.112;2023-09-08T02:09:17;101023.40;;;14.80
68952;BMP180;56000;51.146;17.112;2023-09-08T02:11:50;101019.40;;;14.80
68952;BMP180;56000;51.146;17.112;2023-09-08T02:14:23;101014.80;;;14.80
68952;BMP180;56000;51.146;17.112;2023-09-08T02:16:56;101014.80;;;14.70
68952;BMP180;56000;51.146;17.112;2023-09-08T02:19:29;101013.60;;;14.70
68952;BMP180;56000;51.146;17.112;2023-09-08T02:22:03;101016.20;;;14.70
68952;BMP180;56000;51.146;17.112;2023-09-08T02:24:36;101006.40;;;14.60
68952;BMP180;56000;51.146;17.112;2023-09-08T02:27:10;101005.00;;;14.60
68952;BMP180;56000;51.146;17.112;2023-09-08T02:29:43;101014.40;;;14.60
68952;BMP180;56000;51.146;17.112;2023-09-08T02:32:16;101014.20;;;14.58
68952;BMP180;56000;51.146;17.112;2023-09-08T02:34:49;101009.60;;;14.50
68952;BMP180;56000;51.146;17.112;2023-09-08T02:37:24;101013.20;;;14.50
68952;BMP180;56000;51.146;17.112;2023-09-08T02:39:58;101005.40;;;14.50
68952;BMP180;56000;51.146;17.112;2023-09-08T02:42:31;101007.40;;;14.40
68952;BMP180;56000;51.146;17.112;2023-09-08T02:45:06;101010.80;;;14.40
68952;BMP180;56000;51.146;17.112;2023-09-08T02:47:39;101003.80;;;14.40
68952;BMP180;56000;51.146;17.112;2023-09-08T02:50:13;101006.00;;;14.30
68952;BMP180;56000;51.146;17.112;2023-09-08T02:52:46;101002.80;;;14.30
68952;BMP180;56000;51.146;17.112;2023-09-08T02:55:19;101002.20;;;14.20
68952;BMP180;56000;51.146;17.112;2023-09-08T02:57:52;101000.20;;;14.20
68952;BMP180;56000;51.146;17.112;2023-09-08T03:00:26;101001.00;;;14.18
68952;BMP180;56000;51.146;17.112;2023-09-08T03:02:59;101000.80;;;14.10
68952;BMP180;56000;51.146;17.112;2023-09-08T03:05:32;101000.40;;;14.06
68952;BMP180;56000;51.146;17.112;2023-09-08T03:08:07;100997.20;;;14.00
68952;BMP180;56000;51.146;17.112;2023-09-08T03:10:41;100999.40;;;14.00
68952;BMP180;56000;51.146;17.112;2023-09-08T03:13:14;100995.20;;;13.90
68952;BMP180;56000;51.146;17.112;2023-09-08T03:15:47;100993.20;;;13.90
68952;BMP180;56000;51.146;17.112;2023-09-08T03:18:21;100996.00;;;13.80
68952;BMP180;56000;51.146;17.112;2023-09-08T03:20:54;100992.60;;;13.74
68952;BMP180;56000;51.146;17.112;2023-09-08T03:23:27;100992.20;;;13.70
68952;BMP180;56000;51.146;17.112;2023-09-08T03:26:00;100993.80;;;13.70
68952;BMP180;56000;51.146;17.112;2023-09-08T03:28:35;100992.20;;;13.60
68952;BMP180;56000;51.146;17.112;2023-09-08T03:31:08;100986.60;;;13.60
68952;BMP180;56000;51.146;17.112;2023-09-08T03:33:41;100986.40;;;13.54
68952;BMP180;56000;51.146;17.112;2023-09-08T03:36:15;100986.20;;;13.56
68952;BMP180;56000;51.146;17.112;2023-09-08T03:38:49;100984.80;;;13.60
68952;BMP180;56000;51.146;17.112;2023-09-08T03:41:22;100986.00;;;13.60
68952;BMP180;56000;51.146;17.112;2023-09-08T03:43:55;100988.00;;;13.60
68952;BMP180;56000;51.146;17.112;2023-09-08T03:46:28;100981.60;;;13.60
68952;BMP180;56000;51.146;17.112;2023-09-08T03:49:02;100984.40;;;13.70
68952;BMP180;56000;51.146;17.112;2023-09-08T03:51:35;100980.20;;;13.90
68952;BMP180;56000;51.146;17.112;2023-09-08T03:54:08;100982.20;;;14.10
68952;BMP180;56000;51.146;17.112;2023-09-08T03:56:41;100985.40;;;14.26
68952;BMP180;56000;51.146;17.112;2023-09-08T03:59:14;100986.80;;;14.34
68952;BMP180;56000;51.146;17.112;2023-09-08T04:01:47;100982.80;;;14.40
68952;BMP180;56000;51.146;17.112;2023-09-08T04:04:20;100985.80;;;14.40
68952;BMP180;56000;51.146;17.112;2023-09-08T04:06:53;100985.20;;;14.32
68952;BMP180;56000;51.146;17.112;2023-09-08T04:09:26;100991.40;;;14.30
68952;BMP180;56000;51.146;17.112;2023-09-08T04:12:00;100989.00;;;14.40
68952;BMP180;56000;51.146;17.112;2023-09-08T04:14:34;100992.60;;;14.40
68952;BMP180;56000;51.146;17.112;2023-09-08T04:17:08;100991.40;;;14.40
68952;BMP180;56000;51.146;17.112;2023-09-08T04:19:41;100989.80;;;14.30
68952;BMP180;56000;51.146;17.112;2023-09-08T04:22:14;100987.80;;;14.20
68952;BMP180;56000;51.146;17.112;2023-09-08T04:24:48;100988.80;;;14.00
68952;BMP180;56000;51.146;17.112;2023-09-08T04:27:21;100990.80;;;13.90
68952;BMP180;56000;51.146;17.112;2023-09-08T04:29:54;100980.20;;;13.88
68952;BMP180;56000;51.146;17.112;2023-09-08T04:32:27;100979.80;;;13.80
68952;BMP180;56000;51.146;17.112;2023-09-08T04:35:01;100982.80;;;13.80
68952;BMP180;56000;51.146;17.112;2023-09-08T04:37:34;100985.40;;;13.80
68952;BMP180;56000;51.146;17.112;2023-09-08T04:40:10;100989.20;;;13.80
68952;BMP180;56000;51.146;17.112;2023-09-08T04:42:43;100981.80;;;13.80
68952;BMP180;56000;51.146;17.112;2023-09-08T04:45:17;100977.40;;;13.90
68952;BMP180;56000;51.146;17.112;2023-09-08T04:47:50;100982.20;;;13.96
68952;BMP180;56000;51.146;17.112;2023-09-08T04:50:23;100983.60;;;14.10
68952;BMP180;56000;51.146;17.112;2023-09-08T04:52:57;100984.00;;;14.30
68952;BMP180;56000;51.146;17.112;2023-09-08T04:55:30;100980.20;;;14.50
68952;BMP180;56000;51.146;17.112;2023-09-08T04:58:03;100969.00;;;14.60
68952;BMP180;56000;51.146;17.112;2023-09-08T05:00:38;100971.80;;;14.76
68952;BMP180;56000;51.146;17.112;2023-09-08T05:03:12;100969.60;;;14.90
68952;BMP180;56000;51.146;17.112;2023-09-08T05:05:45;100969.40;;;15.10
68952;BMP180;56000;51.146;17.112;2023-09-08T05:08:19;100969.40;;;15.22
68952;BMP180;56000;51.146;17.112;2023-09-08T05:10:52;100971.60;;;15.40
68952;BMP180;56000;51.146;17.112;2023-09-08T05:13:26;100971.40;;;15.50
68952;BMP180;56000;51.146;17.112;2023-09-08T05:16:04;100972.40;;;15.70
68952;BMP180;56000;51.146;17.112;2023-09-08T05:18:49;100968.80;;;15.96
68952;BMP180;56000;51.146;17.112;2023-09-08T05:21:22;100975.60;;;16.28
68952;BMP180;56000;51.146;17.112;2023-09-08T05:23:55;100974.80;;;16.54
68952;BMP180;56000;51.146;17.112;2023-09-08T05:26:28;100970.80;;;16.60
68952;BMP180;56000;51.146;17.112;2023-09-08T05:29:02;100975.40;;;16.60
68952;BMP180;56000;51.146;17.112;2023-09-08T05:31:35;100972.00;;;16.70
68952;BMP180;56000;51.146;17.112;2023-09-08T05:34:08;100973.60;;;16.70
68952;BMP180;56000;51.146;17.112;2023-09-08T05:36:42;100973.80;;;16.80
68952;BMP180;56000;51.146;17.112;2023-09-08T05:39:17;100976.40;;;17.36
68952;BMP180;56000;51.146;17.112;2023-09-08T05:41:51;100978.20;;;17.40
68952;BMP180;56000;51.146;17.112;2023-09-08T05:44:24;100975.80;;;17.30
68952;BMP180;56000;51.146;17.112;2023-09-08T05:46:58;100975.80;;;17.30
68952;BMP180;56000;51.146;17.112;2023-09-08T05:49:32;100980.00;;;17.20
68952;BMP180;56000;51.146;17.112;2023-09-08T05:52:08;100983.00;;;17.20
68952;BMP180;56000;51.146;17.112;2023-09-08T05:54:42;100984.80;;;17.20
68952;BMP180;56000;51.146;17.112;2023-09-08T05:57:15;100983.40;;;17.20
68952;BMP180;56000;51.146;17.112;2023-09-08T05:59:49;100978.20;;;17.20
68952;BMP180;56000;51.146;17.112;2023-09-08T06:02:22;100980.60;;;17.50
68952;BMP180;56000;51.146;17.112;2023-09-08T06:04:56;100979.40;;;17.60
68952;BMP180;56000;51.146;17.112;2023-09-08T06:07:29;100984.80;;;17.60
68952;BMP180;56000;51.146;17.112;2023-09-08T06:10:02;100982.20;;;17.60
68952;BMP180;56000;51.146;17.112;2023-09-08T06:12:36;100975.60;;;17.70
68952;BMP180;56000;51.146;17.112;2023-09-08T06:15:10;100971.80;;;17.74
68952;BMP180;56000;51.146;17.112;2023-09-08T06:17:43;100975.60;;;17.80
68952;BMP180;56000;51.146;17.112;2023-09-08T06:20:18;100965.00;;;17.90
68952;BMP180;56000;51.146;17.112;2023-09-08T06:22:52;100972.20;;;18.00
68952;BMP180;56000;51.146;17.112;2023-09-08T06:25:25;100972.40;;;18.10
68952;BMP180;56000;51.146;17.112;2023-09-08T06:28:00;100971.60;;;18.10
68952;BMP180;56000;51.146;17.112;2023-09-08T06:30:33;100972.00;;;18.10
68952;BMP180;56000;51.146;17.112;2023-09-08T06:33:06;100974.80;;;18.10
68952;BMP180;56000;51.146;17.112;2023-09-08T06:35:40;100977.60;;;18.12
68952;BMP180;56000;51.146;17.112;2023-09-08T06:38:13;100976.20;;;18.20
68952;BMP180;56000;51.146;17.112;2023-09-08T06:40:46;100976.60;;;18.22
68952;BMP180;56000;51.146;17.112;2023-09-08T06:43:21;100978.20;;;18.30
68952;BMP180;56000;51.146;17.112;2023-09-08T06:46:00;100985.60;;;18.40
68952;BMP180;56000;51.146;17.112;2023-09-08T06:48:33;100982.20;;;18.50
68952;BMP180;56000;51.146;17.112;2023-09-08T06:51:07;100982.20;;;18.60
68952;BMP180;56000;51.146;17.112;2023-09-08T06:53:42;100982.60;;;18.70
68952;BMP180;56000;51.146;17.112;2023-09-08T06:56:15;100984.80;;;18.80
68952;BMP180;56000;51.146;17.112;2023-09-08T06:58:49;100991.80;;;18.80
68952;BMP180;56000;51.146;17.112;2023-09-08T07:01:22;100986.40;;;18.90
68952;BMP180;56000;51.146;17.112;2023-09-08T07:03:55;100983.80;;;19.00
68952;BMP180;56000;51.146;17.112;2023-09-08T07:06:28;100982.20;;;19.10
68952;BMP180;56000;51.146;17.112;2023-09-08T07:09:02;100982.40;;;19.22
68952;BMP180;56000;51.146;17.112;2023-09-08T07:11:36;100984.80;;;19.32
68952;BMP180;56000;51.146;17.112;2023-09-08T07:14:09;100987.20;;;19.40
68952;BMP180;56000;51.146;17.112;2023-09-08T07:16:42;100985.00;;;19.60
68952;BMP180;56000;51.146;17.112;2023-09-08T07:19:15;100985.80;;;19.80
68952;BMP180;56000;51.146;17.112;2023-09-08T07:21:49;100982.40;;;19.80
68952;BMP180;56000;51.146;17.112;2023-09-08T07:24:22;100985.80;;;19.98
68952;BMP180;56000;51.146;17.112;2023-09-08T07:26:56;100984.40;;;20.10
68952;BMP180;56000;51.146;17.112;2023-09-08T07:29:29;100985.40;;;20.20
68952;BMP180;56000;51.146;17.112;2023-09-08T07:32:04;100988.60;;;20.40
68952;BMP180;56000;51.146;17.112;2023-09-08T07:34:37;100989.80;;;20.60
68952;BMP180;56000;51.146;17.112;2023-09-08T07:37:10;100985.20;;;20.80
68952;BMP180;56000;51.146;17.112;2023-09-08T07:39:44;100986.80;;;21.00
68952;BMP180;56000;51.146;17.112;2023-09-08T07:42:19;100986.60;;;21.16
68952;BMP180;56000;51.146;17.112;2023-09-08T07:44:52;100987.00;;;21.22
68952;BMP180;56000;51.146;17.112;2023-09-08T07:47:25;100987.80;;;21.30
68952;BMP180;56000;51.146;17.112;2023-09-08T07:50:23;100988.80;;;21.40
68952;BMP180;56000;51.146;17.112;2023-09-08T07:52:58;100987.40;;;21.60
68952;BMP180;56000;51.146;17.112;2023-09-08T07:55:31;100992.80;;;21.76
68952;BMP180;56000;51.146;17.112;2023-09-08T07:58:04;100989.40;;;21.90
68952;BMP180;56000;51.146;17.112;2023-09-08T08:00:38;100994.00;;;22.10
68952;BMP180;56000;51.146;17.112;2023-09-08T08:03:11;100992.40;;;22.30
68952;BMP180;56000;51.146;17.112;2023-09-08T08:05:44;100987.00;;;22.36
68952;BMP180;56000;51.146;17.112;2023-09-08T08:08:17;100988.00;;;22.34
68952;BMP180;56000;51.146;17.112;2023-09-08T08:10:50;100985.00;;;22.40
68952;BMP180;56000;51.146;17.112;2023-09-08T08:13:24;100989.00;;;22.60
68952;BMP180;56000;51.146;17.112;2023-09-08T08:15:57;100986.20;;;22.70
68952;BMP180;56000;51.146;17.112;2023-09-08T08:18:30;100986.00;;;22.82
68952;BMP180;56000;51.146;17.112;2023-09-08T08:21:05;100981.20;;;23.10
68952;BMP180;56000;51.146;17.112;2023-09-08T08:23:38;100984.60;;;23.50
68952;BMP180;56000;51.146;17.112;2023-09-08T08:26:11;100984.40;;;23.92
68952;BMP180;56000;51.146;17.112;2023-09-08T08:28:45;100980.60;;;24.46
68952;BMP180;56000;51.146;17.112;2023-09-08T08:31:18;100975.60;;;25.00
68952;BMP180;56000;51.146;17.112;2023-09-08T08:33:51;100979.00;;;25.36
68952;BMP180;56000;51.146;17.112;2023-09-08T08:36:24;100970.60;;;25.74
68952;BMP180;56000;51.146;17.112;2023-09-08T08:38:57;100973.20;;;26.18
68952;BMP180;56000;51.146;17.112;2023-09-08T08:41:31;100969.20;;;26.52
68952;BMP180;56000;51.146;17.112;2023-09-08T08:44:10;100975.40;;;26.96
68952;BMP180;56000;51.146;17.112;2023-09-08T08:46:44;100969.80;;;27.20
68952;BMP180;56000;51.146;17.112;2023-09-08T08:49:18;100966.80;;;27.46
68952;BMP180;56000;51.146;17.112;2023-09-08T08:51:53;100970.00;;;27.68
68952;BMP180;56000;51.146;17.112;2023-09-08T08:54:27;100966.20;;;27.92
68952;BMP180;56000;51.146;17.112;2023-09-08T08:57:01;100961.60;;;28.20
68952;BMP180;56000;51.146;17.112;2023-09-08T08:59:35;100958.20;;;28.46
68952;BMP180;56000;51.146;17.112;2023-09-08T09:02:10;100960.80;;;28.84
68952;BMP180;56000;51.146;17.112;2023-09-08T09:04:44;100961.20;;;29.20
68952;BMP180;56000;51.146;17.112;2023-09-08T09:07:19;100956.60;;;29.60
68952;BMP180;56000;51.146;17.112;2023-09-08T09:09:53;100955.60;;;29.80
68952;BMP180;56000;51.146;17.112;2023-09-08T09:12:27;100951.00;;;29.90
68952;BMP180;56000;51.146;17.112;2023-09-08T09:15:02;100953.80;;;30.10
68952;BMP180;56000;51.146;17.112;2023-09-08T09:17:37;100951.40;;;30.48
68952;BMP180;56000;51.146;17.112;2023-09-08T09:20:19;100950.00;;;30.92
68952;BMP180;56000;51.146;17.112;2023-09-08T09:22:53;100949.40;;;31.52
68952;BMP180;56000;51.146;17.112;2023-09-08T09:25:29;100946.20;;;31.80
68952;BMP180;56000;51.146;17.112;2023-09-08T09:28:04;100945.20;;;32.00
68952;BMP180;56000;51.146;17.112;2023-09-08T09:30:52;100948.60;;;32.48
68952;BMP180;56000;51.146;17.112;2023-09-08T09:33:26;100943.60;;;32.70
68952;BMP180;56000;51.146;17.112;2023-09-08T09:36:00;100940.00;;;32.72
68952;BMP180;56000;51.146;17.112;2023-09-08T09:38:36;100942.20;;;33.14
68952;BMP180;56000;51.146;17.112;2023-09-08T09:41:09;100940.20;;;33.72
68952;BMP180;56000;51.146;17.112;2023-09-08T09:43:43;100937.60;;;34.10
68952;BMP180;56000;51.146;17.112;2023-09-08T09:46:17;100939.20;;;34.40
68952;BMP180;56000;51.146;17.112;2023-09-08T09:48:56;100928.60;;;34.52
68952;BMP180;56000;51.146;17.112;2023-09-08T09:51:30;100935.00;;;34.90
68952;BMP180;56000;51.146;17.112;2023-09-08T09:54:05;100936.00;;;35.30
68952;BMP180;56000;51.146;17.112;2023-09-08T09:56:41;100937.40;;;35.60
68952;BMP180;56000;51.146;17.112;2023-09-08T09:59:17;100933.40;;;35.70
68952;BMP180;56000;51.146;17.112;2023-09-08T10:01:50;100934.60;;;35.82
68952;BMP180;56000;51.146;17.112;2023-09-08T10:04:25;100932.40;;;36.14
68952;BMP180;56000;51.146;17.112;2023-09-08T10:06:58;100934.80;;;36.30
68952;BMP180;56000;51.146;17.112;2023-09-08T10:09:32;100929.40;;;36.30
68952;BMP180;56000;51.146;17.112;2023-09-08T10:12:08;100927.60;;;36.60
68952;BMP180;56000;51.146;17.112;2023-09-08T10:14:43;100927.00;;;36.70
68952;BMP180;56000;51.146;17.112;2023-09-08T10:17:21;100925.60;;;36.96
68952;BMP180;56000;51.146;17.112;2023-09-08T10:19:55;100929.80;;;37.52
68952;BMP180;56000;51.146;17.112;2023-09-08T10:22:32;100930.40;;;38.04
68952;BMP180;56000;51.146;17.112;2023-09-08T10:25:11;100929.60;;;38.46
68952;BMP180;56000;51.146;17.112;2023-09-08T10:27:46;100924.80;;;38.88
68952;BMP180;56000;51.146;17.112;2023-09-08T10:30:21;100927.00;;;39.54
68952;BMP180;56000;51.146;17.112;2023-09-08T10:32:56;100927.40;;;39.90
68952;BMP180;56000;51.146;17.112;2023-09-08T10:35:29;100922.80;;;40.16
68952;BMP180;56000;51.146;17.112;2023-09-08T10:38:26;100925.20;;;40.70
68952;BMP180;56000;51.146;17.112;2023-09-08T10:41:28;100922.60;;;40.88
68952;BMP180;56000;51.146;17.112;2023-09-08T10:44:10;100924.00;;;41.38
68952;BMP180;56000;51.146;17.112;2023-09-08T10:46:48;100926.40;;;41.70
68952;BMP180;56000;51.146;17.112;2023-09-08T10:49:23;100928.80;;;41.70
68952;BMP180;56000;51.146;17.112;2023-09-08T10:52:07;100925.60;;;41.70
68952;BMP180;56000;51.146;17.112;2023-09-08T10:54:47;100923.60;;;42.00
68952;BMP180;56000;51.146;17.112;2023-09-08T10:57:22;100924.00;;;42.48
68952;BMP180;56000;51.146;17.112;2023-09-08T10:59:57;100924.60;;;43.02
68952;BMP180;56000;51.146;17.112;2023-09-08T11:02:38;100919.40;;;43.20
68952;BMP180;56000;51.146;17.112;2023-09-08T11:05:13;100917.00;;;43.30
68952;BMP180;56000;51.146;17.112;2023-09-08T11:07:49;100918.20;;;43.40
68952;BMP180;56000;51.146;17.112;2023-09-08T11:10:24;100919.40;;;43.60
68952;BMP180;56000;51.146;17.112;2023-09-08T11:12:58;100913.80;;;43.70
68952;BMP180;56000;51.146;17.112;2023-09-08T11:15:34;100913.20;;;43.80
68952;BMP180;56000;51.146;17.112;2023-09-08T11:18:11;100908.00;;;44.00
68952;BMP180;56000;51.146;17.112;2023-09-08T11:20:44;100907.00;;;44.20
68952;BMP180;56000;51.146;17.112;2023-09-08T11:23:18;100905.40;;;44.20
68952;BMP180;56000;51.146;17.112;2023-09-08T11:25:52;100910.40;;;44.40
68952;BMP180;56000;51.146;17.112;2023-09-08T11:28:27;100907.40;;;44.32
68952;BMP180;56000;51.146;17.112;2023-09-08T11:31:01;100906.40;;;44.10
68952;BMP180;56000;51.146;17.112;2023-09-08T11:33:38;100909.40;;;44.30
68952;BMP180;56000;51.146;17.112;2023-09-08T11:36:16;100908.60;;;44.30
68952;BMP180;56000;51.146;17.112;2023-09-08T11:38:52;100910.80;;;44.56
68952;BMP180;56000;51.146;17.112;2023-09-08T11:41:25;100911.60;;;44.72
68952;BMP180;56000;51.146;17.112;2023-09-08T11:43:58;100910.60;;;45.00
68952;BMP180;56000;51.146;17.112;2023-09-08T11:46:31;100909.20;;;45.20
68952;BMP180;56000;51.146;17.112;2023-09-08T11:49:06;100909.40;;;45.66
68952;BMP180;56000;51.146;17.112;2023-09-08T11:51:40;100905.40;;;46.08
68952;BMP180;56000;51.146;17.112;2023-09-08T11:54:14;100905.40;;;46.20
68952;BMP180;56000;51.146;17.112;2023-09-08T11:56:48;100907.40;;;46.10
68952;BMP180;56000;51.146;17.112;2023-09-08T11:59:21;100909.80;;;46.00
68952;BMP180;56000;51.146;17.112;2023-09-08T12:01:55;100908.40;;;46.34
68952;BMP180;56000;51.146;17.112;2023-09-08T12:04:28;100907.60;;;46.30
68952;BMP180;56000;51.146;17.112;2023-09-08T12:07:01;100908.60;;;46.20
68952;BMP180;56000;51.146;17.112;2023-09-08T12:09:35;100902.20;;;46.40
68952;BMP180;56000;51.146;17.112;2023-09-08T12:12:12;100901.00;;;46.70
68952;BMP180;56000;51.146;17.112;2023-09-08T12:14:46;100897.40;;;47.10
68952;BMP180;56000;51.146;17.112;2023-09-08T12:17:20;100895.20;;;47.44
68952;BMP180;56000;51.146;17.112;2023-09-08T12:19:56;100895.80;;;47.80
68952;BMP180;56000;51.146;17.112;2023-09-08T12:22:34;100892.80;;;47.90
68952;BMP180;56000;51.146;17.112;2023-09-08T12:25:09;100894.60;;;47.70
68952;BMP180;56000;51.146;17.112;2023-09-08T12:27:44;100892.00;;;47.70
68952;BMP180;56000;51.146;17.112;2023-09-08T12:30:22;100892.40;;;47.78
68952;BMP180;56000;51.146;17.112;2023-09-08T12:33:03;100892.00;;;48.12
68952;BMP180;56000;51.146;17.112;2023-09-08T12:35:37;100885.20;;;48.38
68952;BMP180;56000;51.146;17.112;2023-09-08T12:38:10;100889.40;;;48.70
68952;BMP180;56000;51.146;17.112;2023-09-08T12:40:43;100889.80;;;49.10
68952;BMP180;56000;51.146;17.112;2023-09-08T12:43:16;100888.80;;;49.00
68952;BMP180;56000;51.146;17.112;2023-09-08T12:45:58;100885.80;;;48.08
68952;BMP180;56000;51.146;17.112;2023-09-08T12:48:31;100884.40;;;47.80
68952;BMP180;56000;51.146;17.112;2023-09-08T12:51:05;100883.20;;;48.00
68952;BMP180;56000;51.146;17.112;2023-09-08T12:53:38;100878.40;;;48.30
68952;BMP180;56000;51.146;17.112;2023-09-08T12:56:11;100876.40;;;48.10
68952;BMP180;56000;51.146;17.112;2023-09-08T12:58:45;100873.60;;;47.70
68952;BMP180;56000;51.146;17.112;2023-09-08T13:01:18;100871.60;;;47.80
68952;BMP180;56000;51.146;17.112;2023-09-08T13:03:51;100870.80;;;48.10
68952;BMP180;56000;51.146;17.112;2023-09-08T13:06:25;100870.60;;;48.36
68952;BMP180;56000;51.146;17.112;2023-09-08T13:08:58;100875.60;;;48.76
68952;BMP180;56000;51.146;17.112;2023-09-08T13:11:32;100875.60;;;48.78
68952;BMP180;56000;51.146;17.112;2023-09-08T13:14:05;100871.40;;;48.90
68952;BMP180;56000;51.146;17.112;2023-09-08T13:16:38;100868.80;;;48.90
68952;BMP180;56000;51.146;17.112;2023-09-08T13:19:11;100868.20;;;48.90
68952;BMP180;56000;51.146;17.112;2023-09-08T13:21:44;100867.80;;;48.90
68952;BMP180;56000;51.146;17.112;2023-09-08T13:24:17;100867.40;;;48.80
68952;BMP180;56000;51.146;17.112;2023-09-08T13:26:52;100864.80;;;48.60
68952;BMP180;56000;51.146;17.112;2023-09-08T13:29:26;100864.60;;;48.50
68952;BMP180;56000;51.146;17.112;2023-09-08T13:32:00;100859.80;;;48.10
68952;BMP180;56000;51.146;17.112;2023-09-08T13:34:33;100857.60;;;47.86
68952;BMP180;56000;51.146;17.112;2023-09-08T13:37:07;100854.20;;;47.60
68952;BMP180;56000;51.146;17.112;2023-09-08T13:39:40;100848.00;;;47.96
68952;BMP180;56000;51.146;17.112;2023-09-08T13:42:13;100847.60;;;48.36
68952;BMP180;56000;51.146;17.112;2023-09-08T13:44:46;100842.00;;;48.60
68952;BMP180;56000;51.146;17.112;2023-09-08T13:47:19;100839.40;;;48.70
68952;BMP180;56000;51.146;17.112;2023-09-08T13:49:53;100837.60;;;49.00
68952;BMP180;56000;51.146;17.112;2023-09-08T13:52:29;100837.80;;;49.10
68952;BMP180;56000;51.146;17.112;2023-09-08T13:55:07;100838.00;;;48.58
68952;BMP180;56000;51.146;17.112;2023-09-08T13:57:44;100827.80;;;47.80
68952;BMP180;56000;51.146;17.112;2023-09-08T14:00:21;100828.80;;;47.80
68952;BMP180;56000;51.146;17.112;2023-09-08T14:02:56;100828.00;;;48.10
68952;BMP180;56000;51.146;17.112;2023-09-08T14:05:30;100827.60;;;47.74
68952;BMP180;56000;51.146;17.112;2023-09-08T14:08:08;100822.00;;;47.46
68952;BMP180;56000;51.146;17.112;2023-09-08T14:10:44;100821.60;;;47.40
68952;BMP180;56000;51.146;17.112;2023-09-08T14:13:20;100816.20;;;47.60
68952;BMP180;56000;51.146;17.112;2023-09-08T14:15:53;100820.00;;;47.50
68952;BMP180;56000;51.146;17.112;2023-09-08T14:18:26;100820.00;;;46.96
68952;BMP180;56000;51.146;17.112;2023-09-08T14:20:59;100812.00;;;46.38
68952;BMP180;56000;51.146;17.112;2023-09-08T14:23:33;100814.40;;;46.40